Time;durP1;ratioP1;P1;durP2;ratioP2;P2;SDS_P1;SDS_P2;PMS_P1;PMS_P2;Temp;Humidity;BMP_temperature;BMP_pressure;BME280_temperature;BME280_humidity;BME280_pressure;Samples;Min_cycle;Max_cycle;Signal;HPM_P1;HPM_P2
2022/11/22 00:00:18;;;;;;;1.73;1.57;;;7.70;43.30;;;;;;10354384;28;20230;-68
2022/11/22 00:05:22;;;;;;;2.23;1.67;;;7.70;43.40;;;;;;10351764;28;20874;-71
2022/11/22 00:10:25;;;;;;;1.63;1.53;;;7.70;43.10;;;;;;10354655;28;20772;-71
2022/11/22 00:15:30;;;;;;;1.67;1.57;;;7.70;43.00;;;;;;10360936;28;20276;-68
2022/11/22 00:20:34;;;;;;;1.50;1.40;;;7.60;43.10;;;;;;10365045;28;20246;-71
2022/11/22 00:25:37;;;;;;;1.50;1.37;;;7.60;43.30;;;;;;10361121;28;20288;-74
2022/11/22 00:30:41;;;;;;;1.57;1.47;;;7.60;43.40;;;;;;10362104;28;20733;-71
2022/11/22 00:35:45;;;;;;;1.70;1.50;;;7.50;43.40;;;;;;10359673;28;21015;-74
2022/11/22 00:40:48;;;;;;;1.30;1.20;;;7.50;43.40;;;;;;10362503;28;20562;-69
2022/11/22 00:45:53;;;;;;;1.77;1.53;;;7.50;43.60;;;;;;10360378;28;20218;-71
2022/11/22 00:50:56;;;;;;;2.03;1.53;;;7.50;43.40;;;;;;10362219;28;20226;-71
2022/11/22 00:56:00;;;;;;;2.17;1.50;;;7.40;43.60;;;;;;10362655;28;20234;-69
2022/11/22 01:01:04;;;;;;;2.70;1.53;;;7.40;43.80;;;;;;10361475;28;20234;-71
2022/11/22 01:06:07;;;;;;;1.50;1.40;;;7.50;43.80;;;;;;10361201;28;20250;-74
2022/11/22 01:11:11;;;;;;;1.67;1.33;;;7.50;43.80;;;;;;10357947;28;20230;-69
2022/11/22 01:16:16;;;;;;;2.43;1.77;;;7.40;43.70;;;;;;10357718;28;20218;-71
2022/11/22 01:21:19;;;;;;;2.20;1.80;;;7.40;43.80;;;;;;10359798;28;20733;-69
2022/11/22 01:26:22;;;;;;;1.60;1.50;;;7.40;43.80;;;;;;10360057;28;20237;-73
2022/11/22 01:31:28;;;;;;;1.90;1.70;;;7.40;43.90;;;;;;10360770;28;20237;-70
2022/11/22 01:36:32;;;;;;;2.33;1.73;;;7.40;43.80;;;;;;10359792;28;20289;-67
2022/11/22 01:41:35;;;;;;;2.23;1.90;;;7.40;43.80;;;;;;10358453;28;20238;-67
2022/11/22 01:46:39;;;;;;;2.33;2.00;;;7.30;43.90;;;;;;10348304;28;20263;-67
2022/11/22 01:51:46;;;;;;;1.83;1.73;;;7.30;44.00;;;;;;10359368;28;20234;-66
2022/11/22 01:56:54;;;;;;;2.07;1.73;;;7.20;44.10;;;;;;10358289;28;20607;-73
2022/11/22 02:02:00;;;;;;;2.03;1.80;;;7.20;44.40;;;;;;10360345;28;20230;-68
2022/11/22 02:07:08;;;;;;;2.00;1.90;;;7.10;44.40;;;;;;10358556;28;20251;-68
2022/11/22 02:12:13;;;;;;;2.53;2.07;;;7.10;44.60;;;;;;10352031;28;20318;-66
2022/11/22 02:17:17;;;;;;;2.50;2.30;;;7.20;44.80;;;;;;10353329;28;20592;-67
2022/11/22 02:22:31;;;;;;;2.30;2.10;;;7.20;44.80;;;;;;10356334;28;20233;-69
2022/11/22 02:27:35;;;;;;;2.73;2.40;;;7.30;45.00;;;;;;10356133;28;20262;-69
2022/11/22 02:32:38;;;;;;;2.20;2.00;;;7.30;44.80;;;;;;10351864;28;20230;-69
2022/11/22 02:37:41;;;;;;;2.27;2.07;;;7.40;44.70;;;;;;10355735;28;20238;-69
2022/11/22 02:42:50;;;;;;;1.80;1.70;;;7.50;44.80;;;;;;10352478;28;20234;-69
2022/11/22 02:47:53;;;;;;;2.00;1.90;;;7.50;44.90;;;;;;10353732;28;20229;-69
2022/11/22 02:52:56;;;;;;;2.10;1.93;;;7.50;44.80;;;;;;10355898;28;20248;-69
2022/11/22 02:58:01;;;;;;;2.27;2.07;;;7.60;44.80;;;;;;10352616;28;20234;-70
2022/11/22 03:03:04;;;;;;;2.63;2.40;;;7.60;44.80;;;;;;10351513;28;20215;-70
2022/11/22 03:08:08;;;;;;;2.60;2.40;;;7.60;44.80;;;;;;10357328;28;20233;-70
2022/11/22 03:13:12;;;;;;;2.20;2.10;;;7.60;44.90;;;;;;10353613;28;20296;-70
2022/11/22 03:18:15;;;;;;;3.67;2.30;;;7.60;45.10;;;;;;10354152;28;20222;-70
2022/11/22 03:23:19;;;;;;;2.60;2.40;;;7.60;45.00;;;;;;10354261;28;20219;-70
2022/11/22 03:28:24;;;;;;;2.17;1.97;;;7.60;45.00;;;;;;10350114;28;20305;-70
2022/11/22 03:33:27;;;;;;;2.70;2.50;;;7.70;45.50;;;;;;10356068;28;20237;-69
2022/11/22 03:38:31;;;;;;;2.93;2.13;;;7.70;45.30;;;;;;10352842;28;20740;-69
2022/11/22 03:43:35;;;;;;;2.33;2.13;;;7.80;45.40;;;;;;10355514;28;20237;-69
2022/11/22 03:48:38;;;;;;;2.00;1.90;;;7.80;45.40;;;;;;10351344;28;20233;-69
2022/11/22 03:53:42;;;;;;;1.97;1.77;;;7.80;45.10;;;;;;10351563;28;20237;-69
2022/11/22 03:58:46;;;;;;;2.20;2.10;;;7.80;45.10;;;;;;10354253;28;20238;-69
2022/11/22 04:03:51;;;;;;;2.30;2.17;;;7.90;45.40;;;;;;10349481;28;20233;-69
2022/11/22 04:08:54;;;;;;;2.17;1.97;;;7.90;45.10;;;;;;10354974;28;20218;-69
2022/11/22 04:19:19;;;;;;;2.90;2.10;;;7.90;45.10;;;;;;10350961;28;20222;-69
2022/11/22 04:29:44;;;;;;;2.53;2.33;;;8.00;45.20;;;;;;10351687;28;20276;-69
2022/11/22 04:34:47;;;;;;;2.93;1.90;;;7.90;45.30;;;;;;10356422;28;20288;-69
2022/11/22 04:39:50;;;;;;;2.50;2.30;;;7.90;45.20;;;;;;10354145;28;21062;-69
2022/11/22 04:44:55;;;;;;;2.37;2.17;;;8.00;45.50;;;;;;10354016;28;20677;-69
2022/11/22 04:49:58;;;;;;;2.27;2.07;;;8.00;45.60;;;;;;10349977;28;20600;-69
2022/11/22 04:55:01;;;;;;;2.20;2.00;;;8.00;45.40;;;;;;10349238;28;20719;-69
2022/11/22 05:00:07;;;;;;;2.93;2.33;;;8.00;45.40;;;;;;10353760;28;20704;-69
2022/11/22 05:05:10;;;;;;;3.07;2.50;;;8.10;45.60;;;;;;10358920;28;20288;-69
2022/11/22 05:10:13;;;;;;;2.60;2.40;;;8.10;45.50;;;;;;10358378;28;20215;-69
2022/11/22 05:15:18;;;;;;;2.50;2.03;;;8.10;45.50;;;;;;10356712;28;20757;-70
2022/11/22 05:20:21;;;;;;;2.97;2.60;;;8.10;45.70;;;;;;10358683;28;20245;-70
2022/11/22 05:25:24;;;;;;;2.70;2.50;;;8.10;45.40;;;;;;10356794;28;20754;-70
2022/11/22 05:30:29;;;;;;;2.93;2.73;;;8.00;45.30;;;;;;10357846;28;20241;-70
2022/11/22 05:35:32;;;;;;;2.90;2.70;;;8.00;45.60;;;;;;10360968;28;20599;-70
2022/11/22 05:40:35;;;;;;;3.00;2.80;;;8.00;45.70;;;;;;10358118;28;20237;-70
2022/11/22 05:45:40;;;;;;;3.17;2.90;;;8.00;45.90;;;;;;10355772;28;20592;-70
2022/11/22 05:50:43;;;;;;;5.63;5.13;;;8.10;46.00;;;;;;10350669;28;20314;-70
2022/11/22 05:55:47;;;;;;;3.60;3.30;;;8.10;45.70;;;;;;10344341;28;20226;-70
2022/11/22 06:00:51;;;;;;;3.53;3.23;;;8.10;45.80;;;;;;10348661;28;20242;-70
2022/11/22 06:05:54;;;;;;;3.53;3.00;;;8.10;45.90;;;;;;10350092;28;20234;-70
2022/11/22 06:11:04;;;;;;;4.23;3.67;;;8.10;45.80;;;;;;10346714;28;20269;-71
2022/11/22 06:16:09;;;;;;;3.70;3.40;;;8.20;46.10;;;;;;10348107;28;20230;-71
2022/11/22 06:21:15;;;;;;;6.03;3.90;;;8.20;45.90;;;;;;10350498;28;20235;-72
2022/11/22 06:26:20;;;;;;;3.73;3.43;;;8.20;46.00;;;;;;10354673;28;20221;-70
2022/11/22 06:31:26;;;;;;;4.23;3.30;;;8.20;46.90;;;;;;10354456;28;20233;-70
2022/11/22 06:36:31;;;;;;;5.23;4.57;;;8.30;46.70;;;;;;10356031;28;20234;-70
2022/11/22 06:41:35;;;;;;;5.13;4.63;;;8.30;45.90;;;;;;10355546;28;20237;-70
2022/11/22 06:46:40;;;;;;;5.33;4.93;;;8.30;45.80;;;;;;10352483;28;20222;-70
2022/11/22 06:51:43;;;;;;;8.23;7.47;;;8.30;45.80;;;;;;10355678;28;20234;-70
2022/11/22 06:56:46;;;;;;;15.50;13.20;;;8.20;45.70;;;;;;10353177;28;20226;-70
2022/11/22 07:01:51;;;;;;;25.67;20.80;;;8.20;45.80;;;;;;10350733;28;20242;-70
2022/11/22 07:06:54;;;;;;;24.67;19.43;;;8.20;46.00;;;;;;10355004;28;20226;-70
2022/11/22 07:11:57;;;;;;;13.57;12.13;;;8.20;45.80;;;;;;10347388;28;20246;-67
2022/11/22 07:17:02;;;;;;;12.90;11.57;;;8.20;45.80;;;;;;10352895;28;20234;-69
2022/11/22 07:22:05;;;;;;;16.67;14.97;;;8.20;45.80;;;;;;10351374;28;20230;-70
2022/11/22 07:27:08;;;;;;;12.13;10.93;;;8.20;45.70;;;;;;10355616;28;20241;-70
2022/11/22 07:32:12;;;;;;;10.80;9.80;;;8.20;45.90;;;;;;10352623;28;20612;-71
2022/11/22 07:37:16;;;;;;;9.40;8.43;;;8.20;46.30;;;;;;10356105;28;20233;-67
2022/11/22 07:42:19;;;;;;;7.10;6.50;;;8.20;46.20;;;;;;10354771;28;20230;-67
2022/11/22 07:47:29;;;;;;;5.87;5.37;;;8.30;46.50;;;;;;10354556;28;20301;-67
2022/11/22 07:52:33;;;;;;;4.17;3.83;;;8.30;46.60;;;;;;10357677;28;20230;-67
2022/11/22 07:57:36;;;;;;;3.90;3.60;;;8.40;46.60;;;;;;10352829;28;21184;-69
2022/11/22 08:02:40;;;;;;;4.50;4.10;;;8.40;46.70;;;;;;10355123;28;20658;-69
2022/11/22 08:07:47;;;;;;;5.87;4.00;;;8.50;46.90;;;;;;10355082;28;20230;-69
2022/11/22 08:12:50;;;;;;;4.43;4.00;;;8.60;47.10;;;;;;10352302;28;20241;-70
2022/11/22 08:17:54;;;;;;;3.90;3.60;;;8.60;46.90;;;;;;10355695;28;20226;-70
2022/11/22 08:22:58;;;;;;;3.53;3.23;;;8.70;47.20;;;;;;10354032;28;20733;-67
2022/11/22 08:28:01;;;;;;;4.10;3.80;;;8.80;47.00;;;;;;10354634;28;20227;-71
2022/11/22 08:33:05;;;;;;;4.57;4.07;;;8.80;46.90;;;;;;10353984;28;20219;-70
2022/11/22 08:38:08;;;;;;;3.80;3.50;;;8.90;47.20;;;;;;10358906;28;20229;-70
2022/11/22 08:43:11;;;;;;;5.60;4.80;;;9.00;47.20;;;;;;10361002;28;20230;-70
2022/11/22 08:48:16;;;;;;;6.03;4.60;;;9.00;47.10;;;;;;10358784;28;20229;-70
2022/11/22 08:53:25;;;;;;;4.53;4.13;;;9.00;47.20;;;;;;10358318;28;20241;-69
2022/11/22 08:58:29;;;;;;;5.50;4.50;;;9.10;47.10;;;;;;10360485;28;20237;-70
2022/11/22 09:03:35;;;;;;;3.97;3.67;;;9.10;47.20;;;;;;10359331;28;20234;-70
2022/11/22 09:08:38;;;;;;;6.83;4.13;;;9.20;47.30;;;;;;10359757;28;20234;-71
2022/11/22 09:13:46;;;;;;;7.70;3.97;;;9.30;47.20;;;;;;10358472;28;20230;-70
2022/11/22 09:18:51;;;;;;;5.43;3.83;;;9.30;47.20;;;;;;10359966;28;20242;-70
2022/11/22 09:23:55;;;;;;;4.50;3.83;;;9.40;48.40;;;;;;10365663;28;20226;-76
2022/11/22 09:28:58;;;;;;;4.37;3.57;;;9.50;47.90;;;;;;10359444;28;20218;-76
2022/11/22 09:34:02;;;;;;;4.30;3.90;;;9.60;47.70;;;;;;10357276;28;20285;-69
2022/11/22 09:39:06;;;;;;;5.00;3.50;;;9.70;47.70;;;;;;10358846;28;20675;-69
2022/11/22 09:44:17;;;;;;;6.20;4.00;;;9.70;47.50;;;;;;10358251;28;20226;-69
2022/11/22 09:49:27;;;;;;;4.03;3.37;;;9.80;47.80;;;;;;10356760;28;20699;-70
2022/11/22 09:54:39;;;;;;;5.47;4.87;;;9.90;47.90;;;;;;10356274;28;20234;-69
2022/11/22 09:59:47;;;;;;;5.33;4.90;;;9.90;47.80;;;;;;10357294;28;20250;-69
2022/11/22 10:04:57;;;;;;;5.27;4.77;;;10.00;47.00;;;;;;10357302;28;20730;-76
2022/11/22 10:10:04;;;;;;;4.27;3.87;;;10.00;47.00;;;;;;10357605;28;20234;-76
2022/11/22 10:15:22;;;;;;;6.63;5.00;;;10.10;47.10;;;;;;10358509;28;20820;-76
2022/11/22 10:20:29;;;;;;;4.77;4.37;;;10.20;47.40;;;;;;10359056;28;20230;-76
2022/11/22 10:25:39;;;;;;;6.50;5.13;;;10.30;47.30;;;;;;10360088;28;20281;-76
2022/11/22 10:30:51;;;;;;;5.80;4.33;;;10.30;47.10;;;;;;10359250;28;20246;-76
2022/11/22 10:36:14;;;;;;;4.90;3.57;;;10.40;47.20;;;;;;10355986;28;20230;-76
2022/11/22 10:41:31;;;;;;;6.97;4.97;;;10.40;47.10;;;;;;10353650;28;20222;-76
2022/11/22 10:46:45;;;;;;;9.33;7.17;;;10.50;47.00;;;;;;10353141;28;20226;-76
2022/11/22 10:51:56;;;;;;;6.00;4.43;;;10.60;47.10;;;;;;10358084;28;20766;-76
2022/11/22 10:57:07;;;;;;;5.53;3.63;;;10.70;47.00;;;;;;10355694;28;20281;-76
2022/11/22 11:02:24;;;;;;;6.43;4.97;;;10.70;46.90;;;;;;10346293;28;20732;-76
2022/11/22 11:07:29;;;;;;;4.97;4.00;;;10.80;47.00;;;;;;10357867;28;20232;-76
2022/11/22 11:12:39;;;;;;;4.17;3.57;;;10.90;47.00;;;;;;10363833;28;20230;-76
2022/11/22 11:17:45;;;;;;;5.67;4.17;;;10.90;46.80;;;;;;10361818;28;20230;-77
2022/11/22 11:22:50;;;;;;;4.53;2.83;;;11.00;46.80;;;;;;10358454;28;20239;-76
2022/11/22 11:28:18;;;;;;;3.60;2.70;;;11.00;46.80;;;;;;10397804;28;20252;-76
2022/11/22 11:33:27;;;;;;;3.60;2.47;;;11.10;46.50;;;;;;10391407;28;20834;-76
2022/11/22 11:38:34;;;;;;;6.57;3.20;;;11.20;46.60;;;;;;10399617;28;20233;-76
2022/11/22 11:43:42;;;;;;;4.23;2.60;;;11.30;46.70;;;;;;10394368;28;20829;-76
2022/11/22 11:48:46;;;;;;;5.20;3.10;;;11.30;46.10;;;;;;10399174;28;20222;-76
2022/11/22 11:54:01;;;;;;;3.43;2.97;;;11.30;46.40;;;;;;10395268;28;20287;-76
2022/11/22 11:59:11;;;;;;;4.60;3.00;;;11.40;46.20;;;;;;10396791;28;20221;-76
2022/11/22 12:04:20;;;;;;;4.27;2.90;;;11.40;45.90;;;;;;10399736;28;20601;-76
2022/11/22 12:09:43;;;;;;;6.33;2.80;;;11.50;46.10;;;;;;10396648;28;20819;-76
2022/11/22 12:14:53;;;;;;;4.17;2.90;;;11.50;45.90;;;;;;10398000;28;20229;-77
2022/11/22 12:20:20;;;;;;;4.70;2.43;;;11.60;46.50;;;;;;10405940;28;20272;-77
2022/11/22 12:25:32;;;;;;;4.53;2.80;;;11.70;46.00;;;;;;10405712;28;20768;-77
2022/11/22 12:30:39;;;;;;;5.53;2.20;;;11.70;45.60;;;;;;10411019;28;20220;-77
2022/11/22 12:35:45;;;;;;;3.80;2.50;;;11.70;45.60;;;;;;10407495;28;20225;-67
2022/11/22 12:40:54;;;;;;;6.90;2.03;;;11.80;45.70;;;;;;10401032;28;20217;-67
2022/11/22 12:46:00;;;;;;;2.97;2.47;;;11.80;45.40;;;;;;10398414;28;20698;-67
2022/11/22 12:51:08;;;;;;;2.57;1.97;;;11.80;45.20;;;;;;10399711;28;20221;-67
2022/11/22 12:56:21;;;;;;;6.83;3.47;;;11.80;44.60;;;;;;10394137;28;20226;-66
2022/11/22 13:01:29;;;;;;;9.47;4.53;;;11.90;44.50;;;;;;10396672;28;20234;-67
2022/11/22 13:06:39;;;;;;;3.87;2.53;;;11.90;44.70;;;;;;10400126;28;20241;-68
2022/11/22 13:11:49;;;;;;;5.67;2.87;;;11.90;45.00;;;;;;10396779;28;20241;-66
2022/11/22 13:16:54;;;;;;;4.30;1.87;;;11.80;45.10;;;;;;10401253;28;20681;-75
2022/11/22 13:22:09;;;;;;;3.00;1.43;;;11.80;44.60;;;;;;10391630;28;20230;-69
2022/11/22 13:27:18;;;;;;;2.43;1.50;;;11.70;44.00;;;;;;10400483;28;20591;-69
2022/11/22 13:32:23;;;;;;;2.27;1.40;;;11.60;44.00;;;;;;10398715;28;20730;-69
2022/11/22 13:37:28;;;;;;;3.93;2.07;;;11.50;44.20;;;;;;10396701;28;20226;-69
2022/11/22 13:42:32;;;;;;;3.47;2.50;;;11.40;44.70;;;;;;10394208;28;20229;-69
2022/11/22 13:47:44;;;;;;;4.00;2.67;;;11.30;44.90;;;;;;10399779;28;20230;-69
2022/11/22 13:52:53;;;;;;;4.33;2.60;;;11.30;45.80;;;;;;10398087;28;20222;-69
2022/11/22 13:58:50;;;;;;;5.00;4.00;;;11.40;45.40;;;;;;10398383;28;20995;-69
2022/11/22 14:03:54;;;;;;;5.60;3.00;;;11.40;45.40;;;;;;10398462;28;20865;-66
2022/11/22 14:09:27;;;;;;;4.97;2.47;;;11.50;45.50;;;;;;10400794;28;20225;-69
2022/11/22 14:14:40;;;;;;;4.07;2.37;;;11.50;45.40;;;;;;10392380;28;20906;-66
2022/11/22 14:19:59;;;;;;;4.97;2.13;;;11.50;45.30;;;;;;10395097;28;20237;-66
2022/11/22 14:25:22;;;;;;;5.23;3.90;;;11.50;45.00;;;;;;10397795;28;20233;-67
2022/11/22 14:30:38;;;;;;;6.10;4.00;;;11.40;45.00;;;;;;10396420;28;20651;-66
2022/11/22 14:36:17;;;;;;;3.13;2.43;;;11.30;44.80;;;;;;10397560;28;20229;-66
2022/11/22 14:41:43;;;;;;;4.87;2.80;;;11.30;44.90;;;;;;10395929;28;20218;-67
2022/11/22 14:46:56;;;;;;;8.07;6.07;;;11.20;44.80;;;;;;10397367;28;20596;-67
2022/11/22 14:52:01;;;;;;;8.63;6.53;;;11.20;45.00;;;;;;10396839;28;20237;-67
2022/11/22 14:57:07;;;;;;;8.80;6.50;;;11.10;44.80;;;;;;10395429;28;20237;-66
2022/11/22 15:02:55;;;;;;;9.00;8.20;;;11.10;45.60;;;;;;10397313;28;20258;-66
2022/11/22 15:08:17;;;;;;;8.20;6.00;;;11.10;45.50;;;;;;10362471;28;20752;-67
2022/11/22 15:13:59;;;;;;;6.17;5.20;;;11.10;45.50;;;;;;10394663;28;20319;-67
2022/11/22 15:19:03;;;;;;;9.23;4.23;;;11.00;45.30;;;;;;10397342;28;20213;-70
2022/11/22 15:24:30;;;;;;;5.17;4.40;;;11.10;46.70;;;;;;10396114;28;20690;-67
2022/11/22 15:30:07;;;;;;;4.73;4.20;;;11.10;47.60;;;;;;10393800;28;20257;-67
2022/11/22 15:35:38;;;;;;;4.37;3.80;;;11.30;46.90;;;;;;10393803;28;20349;-67
2022/11/22 15:41:05;;;;;;;4.60;4.13;;;11.50;46.40;;;;;;10392672;28;20225;-67
2022/11/22 15:46:29;;;;;;;5.60;4.00;;;11.50;45.80;;;;;;10383872;28;20230;-68
2022/11/22 15:51:55;;;;;;;4.90;3.87;;;11.50;45.50;;;;;;10387680;28;20272;-70
2022/11/22 15:57:28;;;;;;;5.77;4.33;;;11.50;46.00;;;;;;10380917;28;20253;-71
2022/11/22 16:02:32;;;;;;;4.93;4.47;;;11.50;46.00;;;;;;10386801;28;20283;-70
2022/11/22 16:07:37;;;;;;;5.00;4.43;;;11.50;45.70;;;;;;10386231;28;20229;-70
2022/11/22 16:12:42;;;;;;;6.43;4.90;;;11.40;45.50;;;;;;10387673;28;20234;-70
2022/11/22 16:17:50;;;;;;;6.53;5.20;;;11.40;45.50;;;;;;10387727;28;20222;-70
2022/11/22 16:23:23;;;;;;;5.70;4.10;;;11.40;45.40;;;;;;10388725;28;20234;-70
2022/11/22 16:28:37;;;;;;;5.97;4.80;;;11.40;45.50;;;;;;10387777;28;20233;-71
2022/11/22 16:33:40;;;;;;;8.60;7.70;;;11.40;45.40;;;;;;10382796;28;20241;-70
2022/11/22 16:38:44;;;;;;;10.60;9.47;;;11.30;45.20;;;;;;10385812;28;20226;-70
2022/11/22 16:43:51;;;;;;;11.00;9.87;;;11.30;45.20;;;;;;10385796;28;20234;-70
2022/11/22 16:48:55;;;;;;;9.30;8.40;;;11.30;45.30;;;;;;10383439;28;20987;-70
2022/11/22 16:54:05;;;;;;;12.63;11.33;;;11.20;45.30;;;;;;10377262;28;20292;-70
2022/11/22 16:59:11;;;;;;;12.03;10.50;;;11.20;45.20;;;;;;10388156;28;20237;-70
2022/11/22 17:04:21;;;;;;;12.47;11.23;;;11.10;45.10;;;;;;10386585;28;20851;-70
2022/11/22 17:09:24;;;;;;;15.03;13.53;;;11.10;45.10;;;;;;10387677;28;20226;-70
2022/11/22 17:14:29;;;;;;;15.63;13.73;;;11.10;45.20;;;;;;10398644;28;20292;-70
2022/11/22 17:19:32;;;;;;;14.43;12.93;;;11.00;45.10;;;;;;10395447;28;20320;-71
2022/11/22 17:24:56;;;;;;;12.30;11.10;;;11.00;45.10;;;;;;10394344;28;20242;-71
2022/11/22 17:30:00;;;;;;;10.77;9.67;;;11.00;45.10;;;;;;10399062;28;20226;-71
2022/11/22 17:35:04;;;;;;;9.10;8.20;;;10.90;45.10;;;;;;10396922;28;20238;-71
2022/11/22 17:40:09;;;;;;;8.77;7.70;;;10.90;45.00;;;;;;10395644;28;20240;-71
2022/11/22 17:45:14;;;;;;;9.50;7.67;;;10.90;45.00;;;;;;10396971;28;20230;-71
2022/11/22 17:50:17;;;;;;;7.77;6.97;;;10.90;45.00;;;;;;10382438;28;20236;-71
2022/11/22 17:55:20;;;;;;;8.70;6.90;;;10.80;45.00;;;;;;10383720;28;20225;-71
2022/11/22 18:00:25;;;;;;;8.87;6.63;;;10.80;45.00;;;;;;10385841;28;20225;-71
2022/11/22 18:05:34;;;;;;;7.73;6.93;;;10.70;45.00;;;;;;10396249;28;20722;-71
2022/11/22 18:10:38;;;;;;;10.20;8.40;;;10.70;45.10;;;;;;10395596;28;20234;-71
2022/11/22 18:15:44;;;;;;;11.27;9.50;;;10.60;45.10;;;;;;10394402;28;20237;-70
2022/11/22 18:20:48;;;;;;;10.93;8.73;;;10.60;45.00;;;;;;10396227;28;20757;-70
2022/11/22 18:25:51;;;;;;;11.00;9.73;;;10.50;44.80;;;;;;10396129;28;20226;-70
2022/11/22 18:31:14;;;;;;;9.57;7.87;;;10.40;45.00;;;;;;10391687;28;20222;-71
2022/11/22 18:36:23;;;;;;;7.47;6.53;;;10.40;45.30;;;;;;10396231;28;20230;-71
2022/11/22 18:41:46;;;;;;;8.67;5.80;;;10.40;46.10;;;;;;10397227;28;20233;-71
2022/11/22 18:46:50;;;;;;;6.33;5.57;;;10.30;45.10;;;;;;10397462;28;20251;-71
2022/11/22 18:51:54;;;;;;;12.53;11.20;;;10.30;45.20;;;;;;10392023;28;20404;-71
2022/11/22 18:56:57;;;;;;;8.63;7.80;;;10.30;45.10;;;;;;10394674;28;20225;-71
2022/11/22 19:02:02;;;;;;;8.73;7.23;;;10.30;45.10;;;;;;10394989;28;20234;-71
2022/11/22 19:07:05;;;;;;;8.37;6.50;;;10.30;45.10;;;;;;10397677;28;20234;-71
2022/11/22 19:12:08;;;;;;;7.00;5.97;;;10.30;45.30;;;;;;10392079;28;20226;-71
2022/11/22 19:17:12;;;;;;;7.67;6.77;;;10.30;45.20;;;;;;10397189;28;20229;-71
2022/11/22 19:22:23;;;;;;;6.80;6.20;;;10.30;45.30;;;;;;10395372;28;20238;-71
2022/11/22 19:27:26;;;;;;;5.20;4.70;;;10.30;45.20;;;;;;10391989;28;20276;-71
2022/11/22 19:32:30;;;;;;;5.23;4.20;;;10.30;45.10;;;;;;10395993;28;20241;-71
2022/11/22 19:37:34;;;;;;;5.57;4.47;;;10.30;44.80;;;;;;10396580;28;20237;-70
2022/11/22 19:42:38;;;;;;;4.67;4.03;;;10.30;44.70;;;;;;10389141;28;20240;-71
2022/11/22 19:47:43;;;;;;;5.30;3.90;;;10.30;44.70;;;;;;10394648;28;20233;-71
2022/11/22 19:52:46;;;;;;;5.50;4.07;;;10.20;44.60;;;;;;10392499;28;20228;-71
2022/11/22 19:57:50;;;;;;;4.30;3.90;;;10.20;44.60;;;;;;10392533;28;20963;-70
2022/11/22 20:02:54;;;;;;;4.97;4.47;;;10.10;44.50;;;;;;10391602;28;20244;-70
2022/11/22 20:07:58;;;;;;;4.40;4.00;;;10.10;44.40;;;;;;10390519;28;20244;-70
2022/11/22 20:13:01;;;;;;;5.27;4.77;;;10.10;44.30;;;;;;10390591;28;20225;-70
2022/11/22 20:18:08;;;;;;;5.07;4.63;;;10.00;44.10;;;;;;10393014;28;20226;-70
2022/11/22 20:23:11;;;;;;;6.10;5.50;;;10.00;44.10;;;;;;10395393;28;20229;-70
2022/11/22 20:28:15;;;;;;;5.43;4.93;;;9.90;45.10;;;;;;10394794;28;20717;-77
2022/11/22 20:33:20;;;;;;;6.07;5.47;;;9.90;45.20;;;;;;10400560;28;20232;-75
2022/11/22 20:38:23;;;;;;;6.53;5.90;;;9.80;45.00;;;;;;10402202;28;20690;-75
2022/11/22 20:43:36;;;;;;;8.07;6.70;;;9.80;45.10;;;;;;10398036;28;20333;-75
2022/11/22 20:48:42;;;;;;;6.60;5.90;;;9.70;45.00;;;;;;10401207;28;20234;-77
2022/11/22 20:53:46;;;;;;;6.67;5.97;;;9.70;44.80;;;;;;10395286;28;22553;-75
2022/11/22 20:58:51;;;;;;;10.43;8.73;;;9.70;45.00;;;;;;10403585;28;20229;-75
2022/11/22 21:03:55;;;;;;;9.87;8.87;;;9.60;45.00;;;;;;10401377;28;20245;-70
2022/11/22 21:08:59;;;;;;;9.90;8.47;;;9.60;45.20;;;;;;10400260;28;20225;-69
2022/11/22 21:14:02;;;;;;;8.87;7.83;;;9.50;45.00;;;;;;10398706;28;20209;-75
2022/11/22 21:19:06;;;;;;;8.67;7.87;;;9.50;45.00;;;;;;10401310;28;20228;-67
2022/11/22 21:24:12;;;;;;;10.10;8.60;;;9.50;45.00;;;;;;10393247;28;20305;-69
2022/11/22 21:29:15;;;;;;;8.80;7.90;;;9.50;44.90;;;;;;10394297;28;20229;-69
2022/11/22 21:34:20;;;;;;;7.27;6.57;;;9.40;45.00;;;;;;10393585;28;20789;-70
2022/11/22 21:39:23;;;;;;;8.80;6.70;;;9.40;45.00;;;;;;10396410;28;20705;-70
2022/11/22 21:44:26;;;;;;;7.70;6.90;;;9.30;45.00;;;;;;10390679;28;20264;-69
2022/11/22 21:49:31;;;;;;;6.47;5.77;;;9.30;45.10;;;;;;10396079;28;20283;-70
2022/11/22 21:54:35;;;;;;;6.03;5.07;;;9.20;45.00;;;;;;10392597;28;21058;-70
2022/11/22 21:59:39;;;;;;;5.33;4.87;;;9.20;45.00;;;;;;10393863;28;20245;-70
2022/11/22 22:04:43;;;;;;;8.63;5.60;;;9.20;45.10;;;;;;10393019;28;20237;-69
2022/11/22 22:09:46;;;;;;;6.93;5.70;;;9.20;45.20;;;;;;10396429;28;20234;-70
2022/11/22 22:14:49;;;;;;;5.00;4.50;;;9.20;45.10;;;;;;10392906;28;20229;-70
2022/11/22 22:19:54;;;;;;;7.03;4.83;;;9.10;45.20;;;;;;10395522;28;20229;-70
2022/11/22 22:24:57;;;;;;;6.47;5.03;;;9.10;45.20;;;;;;10397613;28;20646;-70
2022/11/22 22:30:00;;;;;;;6.03;4.83;;;9.10;45.40;;;;;;10395067;28;20640;-70
2022/11/22 22:35:05;;;;;;;7.07;5.80;;;9.10;45.50;;;;;;10394850;28;20645;-70
2022/11/22 22:40:09;;;;;;;5.80;5.20;;;9.10;45.50;;;;;;10398593;28;20237;-70
2022/11/22 22:45:12;;;;;;;5.80;5.20;;;9.10;45.50;;;;;;10398483;28;20226;-70
2022/11/22 22:50:17;;;;;;;7.20;5.20;;;9.10;45.50;;;;;;10393271;28;20747;-71
2022/11/22 22:55:20;;;;;;;7.93;4.87;;;9.10;45.60;;;;;;10393734;28;20761;-70
2022/11/22 23:00:23;;;;;;;5.40;4.80;;;9.00;45.40;;;;;;10395806;28;20226;-70
2022/11/22 23:05:27;;;;;;;5.57;4.63;;;9.00;45.40;;;;;;10395781;28;20233;-76
2022/11/22 23:10:31;;;;;;;7.00;4.70;;;9.00;45.50;;;;;;10397278;28;20646;-75
2022/11/22 23:15:39;;;;;;;5.13;4.70;;;9.00;45.50;;;;;;10398478;28;20251;-75
2022/11/22 23:21:01;;;;;;;7.03;5.10;;;9.00;45.80;;;;;;10395483;28;20229;-75
2022/11/22 23:26:07;;;;;;;7.43;4.97;;;9.00;45.80;;;;;;10395531;28;20234;-75
2022/11/22 23:31:11;;;;;;;4.97;4.10;;;9.00;45.80;;;;;;10398309;28;20324;-75
2022/11/22 23:36:17;;;;;;;6.27;4.63;;;8.90;45.60;;;;;;10393142;28;20588;-75
2022/11/22 23:41:23;;;;;;;6.13;4.37;;;8.90;45.90;;;;;;10397868;28;20678;-75
2022/11/22 23:46:27;;;;;;;5.87;4.30;;;9.00;46.00;;;;;;10394996;28;20231;-75
2022/11/22 23:51:33;;;;;;;4.77;4.27;;;8.90;45.90;;;;;;10397358;28;20238;-75
2022/11/22 23:56:36;;;;;;;4.73;4.00;;;8.90;45.90;;;;;;10394698;28;20233;-75
